createdAt,value
2023-02-19T00:14:03.386Z,66.83
2023-02-19T00:35:49.035Z,66.46
2023-02-19T00:57:35.030Z,69.34
2023-02-19T01:19:21.267Z,69.71
2023-02-19T01:41:09.963Z,70.05
2023-02-19T02:02:59.375Z,70.52
2023-02-19T02:25:27.520Z,71.45
2023-02-19T02:47:33.468Z,71.10
2023-02-19T03:09:30.461Z,66.35
2023-02-19T03:31:20.784Z,63.70
2023-02-19T03:53:13.382Z,65.63
2023-02-19T04:15:05.086Z,65.80
2023-02-19T04:36:51.016Z,65.61
2023-02-19T04:58:36.980Z,65.26
2023-02-19T05:20:23.458Z,64.95
2023-02-19T05:42:09.938Z,64.37
2023-02-19T06:03:57.625Z,64.61
2023-02-19T06:25:43.915Z,63.98
2023-02-19T06:47:31.585Z,63.77
2023-02-19T07:09:17.435Z,64.20
2023-02-19T07:31:05.491Z,63.99
2023-02-19T07:52:51.183Z,63.69
2023-02-19T08:14:36.984Z,62.96
2023-02-19T08:36:22.978Z,63.07
2023-02-19T08:58:08.627Z,63.89
2023-02-19T09:19:54.391Z,63.50
2023-02-19T09:41:45.621Z,64.29
2023-02-19T10:03:35.927Z,59.40
2023-02-19T10:25:21.859Z,62.73
2023-02-19T10:47:08.383Z,59.93
2023-02-19T11:09:00.084Z,64.36
2023-02-19T11:30:47.055Z,61.22
2023-02-19T11:52:42.205Z,64.86
2023-02-19T12:15:05.374Z,65.37
2023-02-19T12:37:05.214Z,64.48
2023-02-19T12:58:54.442Z,62.05
2023-02-19T13:20:43.328Z,59.09
2023-02-19T13:42:33.235Z,60.87
2023-02-19T14:04:24.008Z,60.92
2023-02-19T14:26:10.095Z,60.50
2023-02-19T14:47:58.475Z,59.06
2023-02-19T15:09:46.695Z,60.56
2023-02-19T15:31:32.599Z,61.28
2023-02-19T15:53:22.859Z,58.73
2023-02-19T16:15:20.990Z,60.71
2023-02-19T16:37:34.991Z,62.06
2023-02-19T16:59:20.957Z,58.80
2023-02-19T17:21:15.555Z,60.82
2023-02-19T17:43:01.479Z,61.75
2023-02-19T18:04:47.223Z,57.56
2023-02-19T18:26:33.788Z,62.25
2023-02-19T18:48:19.660Z,60.53
2023-02-19T19:10:05.860Z,64.24
2023-02-19T19:31:52.298Z,62.86
2023-02-19T19:53:38.159Z,61.61
2023-02-19T20:15:25.925Z,61.76
2023-02-19T20:37:11.700Z,57.41
2023-02-19T20:58:57.331Z,64.89
2023-02-19T21:20:41.436Z,58.28
2023-02-19T21:42:27.105Z,62.78
2023-02-19T22:04:12.175Z,61.77
2023-02-19T22:25:58.136Z,65.55
2023-02-19T22:47:44.682Z,61.53
2023-02-19T23:09:31.305Z,59.63
2023-02-19T23:31:17.799Z,64.54
2023-02-19T23:53:03.639Z,60.56
